sensor_id;sensor_type;location;lat;lon;timestamp;temperature;humidity
46752;DHT22;32497;48.936;9.270;2022-10-16T00:04:51;15.80;87.60
46752;DHT22;32497;48.936;9.270;2022-10-16T00:09:54;15.90;87.50
46752;DHT22;32497;48.936;9.270;2022-10-16T00:14:55;16.00;87.70
46752;DHT22;32497;48.936;9.270;2022-10-16T00:19:56;15.90;87.60
46752;DHT22;32497;48.936;9.270;2022-10-16T00:24:58;16.00;87.40
46752;DHT22;32497;48.936;9.270;2022-10-16T00:29:59;15.90;87.10
46752;DHT22;32497;48.936;9.270;2022-10-16T00:35:00;16.00;87.10
46752;DHT22;32497;48.936;9.270;2022-10-16T00:40:03;15.90;87.20
46752;DHT22;32497;48.936;9.270;2022-10-16T00:45:05;15.80;87.20
46752;DHT22;32497;48.936;9.270;2022-10-16T00:50:09;15.70;87.20
46752;DHT22;32497;48.936;9.270;2022-10-16T00:55:14;15.70;87.30
46752;DHT22;32497;48.936;9.270;2022-10-16T01:00:18;15.70;87.30
46752;DHT22;32497;48.936;9.270;2022-10-16T01:05:21;15.80;87.50
46752;DHT22;32497;48.936;9.270;2022-10-16T01:10:27;15.80;87.60
46752;DHT22;32497;48.936;9.270;2022-10-16T01:15:34;15.90;87.10
46752;DHT22;32497;48.936;9.270;2022-10-16T01:20:40;15.90;87.60
46752;DHT22;32497;48.936;9.270;2022-10-16T01:26:16;15.90;87.40
46752;DHT22;32497;48.936;9.270;2022-10-16T01:31:24;15.90;87.60
46752;DHT22;32497;48.936;9.270;2022-10-16T01:36:31;15.80;87.50
46752;DHT22;32497;48.936;9.270;2022-10-16T01:41:38;15.70;87.70
46752;DHT22;32497;48.936;9.270;2022-10-16T01:46:43;15.70;87.80
46752;DHT22;32497;48.936;9.270;2022-10-16T01:51:49;15.60;88.00
46752;DHT22;32497;48.936;9.270;2022-10-16T01:56:53;15.70;87.90
46752;DHT22;32497;48.936;9.270;2022-10-16T02:01:59;15.70;88.00
46752;DHT22;32497;48.936;9.270;2022-10-16T02:07:01;15.70;88.10
46752;DHT22;32497;48.936;9.270;2022-10-16T02:12:08;15.60;88.20
46752;DHT22;32497;48.936;9.270;2022-10-16T02:17:14;15.60;88.20
46752;DHT22;32497;48.936;9.270;2022-10-16T02:22:20;15.70;88.10
46752;DHT22;32497;48.936;9.270;2022-10-16T02:27:26;15.70;87.90
46752;DHT22;32497;48.936;9.270;2022-10-16T02:32:31;15.80;87.80
46752;DHT22;32497;48.936;9.270;2022-10-16T02:37:33;15.80;87.60
46752;DHT22;32497;48.936;9.270;2022-10-16T02:42:36;15.90;87.70
46752;DHT22;32497;48.936;9.270;2022-10-16T02:47:39;15.90;87.30
46752;DHT22;32497;48.936;9.270;2022-10-16T02:52:40;16.00;87.40
46752;DHT22;32497;48.936;9.270;2022-10-16T02:57:41;16.00;87.00
46752;DHT22;32497;48.936;9.270;2022-10-16T03:02:44;15.90;87.30
46752;DHT22;32497;48.936;9.270;2022-10-16T03:07:45;15.80;88.00
46752;DHT22;32497;48.936;9.270;2022-10-16T03:12:46;15.70;88.00
46752;DHT22;32497;48.936;9.270;2022-10-16T03:17:48;15.70;88.30
46752;DHT22;32497;48.936;9.270;2022-10-16T03:22:49;15.70;88.10
46752;DHT22;32497;48.936;9.270;2022-10-16T03:27:51;15.70;88.30
46752;DHT22;32497;48.936;9.270;2022-10-16T03:32:53;15.70;88.40
46752;DHT22;32497;48.936;9.270;2022-10-16T03:37:54;15.60;88.50
46752;DHT22;32497;48.936;9.270;2022-10-16T03:42:55;15.50;88.80
46752;DHT22;32497;48.936;9.270;2022-10-16T03:47:57;15.50;88.90
46752;DHT22;32497;48.936;9.270;2022-10-16T03:52:58;15.30;89.10
46752;DHT22;32497;48.936;9.270;2022-10-16T03:57:59;15.20;89.40
46752;DHT22;32497;48.936;9.270;2022-10-16T04:03:02;15.10;89.70
46752;DHT22;32497;48.936;9.270;2022-10-16T04:08:03;15.00;89.90
46752;DHT22;32497;48.936;9.270;2022-10-16T04:13:04;15.00;89.90
46752;DHT22;32497;48.936;9.270;2022-10-16T04:18:07;15.00;89.70
46752;DHT22;32497;48.936;9.270;2022-10-16T04:23:08;15.00;89.40
46752;DHT22;32497;48.936;9.270;2022-10-16T04:28:09;15.00;89.60
46752;DHT22;32497;48.936;9.270;2022-10-16T04:33:11;14.80;90.00
46752;DHT22;32497;48.936;9.270;2022-10-16T04:38:12;14.80;90.10
46752;DHT22;32497;48.936;9.270;2022-10-16T04:43:13;14.80;89.90
46752;DHT22;32497;48.936;9.270;2022-10-16T04:48:16;15.00;89.80
46752;DHT22;32497;48.936;9.270;2022-10-16T04:53:17;15.00;89.50
46752;DHT22;32497;48.936;9.270;2022-10-16T04:58:18;15.00;89.20
46752;DHT22;32497;48.936;9.270;2022-10-16T05:03:21;15.00;89.20
46752;DHT22;32497;48.936;9.270;2022-10-16T05:08:22;15.20;89.20
46752;DHT22;32497;48.936;9.270;2022-10-16T05:13:23;15.10;89.10
46752;DHT22;32497;48.936;9.270;2022-10-16T05:18:25;15.00;89.50
46752;DHT22;32497;48.936;9.270;2022-10-16T05:23:26;15.00;89.80
46752;DHT22;32497;48.936;9.270;2022-10-16T05:28:28;14.80;90.10
46752;DHT22;32497;48.936;9.270;2022-10-16T05:33:30;14.70;90.80
46752;DHT22;32497;48.936;9.270;2022-10-16T05:38:31;14.70;90.90
46752;DHT22;32497;48.936;9.270;2022-10-16T05:43:33;14.70;90.80
46752;DHT22;32497;48.936;9.270;2022-10-16T05:48:35;14.70;90.50
46752;DHT22;32497;48.936;9.270;2022-10-16T05:53:37;14.80;90.20
46752;DHT22;32497;48.936;9.270;2022-10-16T05:58:40;14.90;89.90
46752;DHT22;32497;48.936;9.270;2022-10-16T06:03:43;14.80;89.90
46752;DHT22;32497;48.936;9.270;2022-10-16T06:08:45;14.90;89.90
46752;DHT22;32497;48.936;9.270;2022-10-16T06:13:49;14.80;90.10
46752;DHT22;32497;48.936;9.270;2022-10-16T06:18:52;14.80;90.40
46752;DHT22;32497;48.936;9.270;2022-10-16T06:23:54;14.90;90.10
46752;DHT22;32497;48.936;9.270;2022-10-16T06:28:57;14.90;89.90
46752;DHT22;32497;48.936;9.270;2022-10-16T06:34:00;14.90;90.20
46752;DHT22;32497;48.936;9.270;2022-10-16T06:39:01;14.80;90.70
46752;DHT22;32497;48.936;9.270;2022-10-16T06:44:05;14.80;90.80
46752;DHT22;32497;48.936;9.270;2022-10-16T06:49:07;14.90;90.40
46752;DHT22;32497;48.936;9.270;2022-10-16T06:54:09;15.00;90.30
46752;DHT22;32497;48.936;9.270;2022-10-16T06:59:10;15.10;89.90
46752;DHT22;32497;48.936;9.270;2022-10-16T07:04:12;15.20;89.40
46752;DHT22;32497;48.936;9.270;2022-10-16T07:09:13;15.60;89.00
46752;DHT22;32497;48.936;9.270;2022-10-16T07:14:16;15.80;88.30
46752;DHT22;32497;48.936;9.270;2022-10-16T07:19:19;15.90;87.20
46752;DHT22;32497;48.936;9.270;2022-10-16T07:24:20;15.90;86.80
46752;DHT22;32497;48.936;9.270;2022-10-16T07:29:21;16.10;86.20
46752;DHT22;32497;48.936;9.270;2022-10-16T07:34:24;16.20;86.20
46752;DHT22;32497;48.936;9.270;2022-10-16T07:39:25;16.20;86.30
46752;DHT22;32497;48.936;9.270;2022-10-16T07:44:26;16.10;86.20
46752;DHT22;32497;48.936;9.270;2022-10-16T07:49:28;16.10;86.30
46752;DHT22;32497;48.936;9.270;2022-10-16T07:54:29;16.20;86.50
46752;DHT22;32497;48.936;9.270;2022-10-16T07:59:30;16.10;86.60
46752;DHT22;32497;48.936;9.270;2022-10-16T08:04:33;16.20;86.00
46752;DHT22;32497;48.936;9.270;2022-10-16T08:09:34;16.30;85.00
46752;DHT22;32497;48.936;9.270;2022-10-16T08:14:35;16.60;83.10
46752;DHT22;32497;48.936;9.270;2022-10-16T08:19:37;16.90;83.00
46752;DHT22;32497;48.936;9.270;2022-10-16T08:24:38;17.20;82.70
46752;DHT22;32497;48.936;9.270;2022-10-16T08:29:40;17.50;82.50
46752;DHT22;32497;48.936;9.270;2022-10-16T08:34:42;17.70;81.90
46752;DHT22;32497;48.936;9.270;2022-10-16T08:39:43;18.00;81.80
46752;DHT22;32497;48.936;9.270;2022-10-16T08:45:07;18.60;79.60
46752;DHT22;32497;48.936;9.270;2022-10-16T08:50:23;18.70;78.60
46752;DHT22;32497;48.936;9.270;2022-10-16T08:55:31;18.70;78.00
46752;DHT22;32497;48.936;9.270;2022-10-16T09:00:33;18.70;78.10
46752;DHT22;32497;48.936;9.270;2022-10-16T09:06:04;18.70;79.00
46752;DHT22;32497;48.936;9.270;2022-10-16T09:11:11;18.70;78.50
46752;DHT22;32497;48.936;9.270;2022-10-16T09:16:19;18.60;77.70
46752;DHT22;32497;48.936;9.270;2022-10-16T09:21:25;18.60;78.30
46752;DHT22;32497;48.936;9.270;2022-10-16T09:26:27;18.40;78.30
46752;DHT22;32497;48.936;9.270;2022-10-16T09:31:28;18.70;78.70
46752;DHT22;32497;48.936;9.270;2022-10-16T09:36:35;18.80;77.60
46752;DHT22;32497;48.936;9.270;2022-10-16T09:41:40;18.90;78.60
46752;DHT22;32497;48.936;9.270;2022-10-16T09:46:42;19.20;78.10
46752;DHT22;32497;48.936;9.270;2022-10-16T09:51:45;19.50;77.70
46752;DHT22;32497;48.936;9.270;2022-10-16T09:56:46;19.60;75.80
46752;DHT22;32497;48.936;9.270;2022-10-16T10:01:49;19.70;76.20
46752;DHT22;32497;48.936;9.270;2022-10-16T10:06:53;19.90;75.00
46752;DHT22;32497;48.936;9.270;2022-10-16T10:11:56;20.20;74.50
46752;DHT22;32497;48.936;9.270;2022-10-16T10:17:11;20.20;73.80
46752;DHT22;32497;48.936;9.270;2022-10-16T10:22:21;20.20;74.60
46752;DHT22;32497;48.936;9.270;2022-10-16T10:27:31;20.00;74.40
46752;DHT22;32497;48.936;9.270;2022-10-16T10:32:41;20.20;73.40
46752;DHT22;32497;48.936;9.270;2022-10-16T10:37:59;20.80;70.70
46752;DHT22;32497;48.936;9.270;2022-10-16T10:43:05;21.20;69.60
46752;DHT22;32497;48.936;9.270;2022-10-16T10:48:20;20.80;68.20
46752;DHT22;32497;48.936;9.270;2022-10-16T10:53:36;21.40;68.80
46752;DHT22;32497;48.936;9.270;2022-10-16T10:58:53;21.70;66.00
46752;DHT22;32497;48.936;9.270;2022-10-16T11:04:20;21.60;64.90
46752;DHT22;32497;48.936;9.270;2022-10-16T11:09:30;21.90;65.30
46752;DHT22;32497;48.936;9.270;2022-10-16T11:14:38;22.10;63.80
46752;DHT22;32497;48.936;9.270;2022-10-16T11:19:44;23.00;63.00
46752;DHT22;32497;48.936;9.270;2022-10-16T11:24:51;23.60;61.50
46752;DHT22;32497;48.936;9.270;2022-10-16T11:29:57;24.00;59.40
46752;DHT22;32497;48.936;9.270;2022-10-16T11:35:08;23.10;60.00
46752;DHT22;32497;48.936;9.270;2022-10-16T11:40:22;22.60;60.00
46752;DHT22;32497;48.936;9.270;2022-10-16T11:45:29;22.60;60.60
46752;DHT22;32497;48.936;9.270;2022-10-16T11:50:34;22.90;62.30
46752;DHT22;32497;48.936;9.270;2022-10-16T11:55:41;22.50;63.00
46752;DHT22;32497;48.936;9.270;2022-10-16T12:00:46;23.20;59.70
46752;DHT22;32497;48.936;9.270;2022-10-16T12:11:35;23.30;62.20
46752;DHT22;32497;48.936;9.270;2022-10-16T12:16:37;23.50;59.50
46752;DHT22;32497;48.936;9.270;2022-10-16T12:21:39;24.40;56.80
46752;DHT22;32497;48.936;9.270;2022-10-16T12:26:44;25.00;53.90
46752;DHT22;32497;48.936;9.270;2022-10-16T12:31:47;25.30;53.70
46752;DHT22;32497;48.936;9.270;2022-10-16T12:36:49;25.10;54.10
46752;DHT22;32497;48.936;9.270;2022-10-16T12:42:03;26.20;50.70
46752;DHT22;32497;48.936;9.270;2022-10-16T12:47:04;26.20;49.50
46752;DHT22;32497;48.936;9.270;2022-10-16T12:52:24;25.70;55.80
46752;DHT22;32497;48.936;9.270;2022-10-16T12:57:36;25.60;56.80
46752;DHT22;32497;48.936;9.270;2022-10-16T13:08:21;26.40;55.50
46752;DHT22;32497;48.936;9.270;2022-10-16T13:13:40;26.50;53.70
46752;DHT22;32497;48.936;9.270;2022-10-16T13:18:49;25.70;55.80
46752;DHT22;32497;48.936;9.270;2022-10-16T13:23:59;24.70;57.60
46752;DHT22;32497;48.936;9.270;2022-10-16T13:29:04;24.50;57.10
46752;DHT22;32497;48.936;9.270;2022-10-16T13:34:06;24.30;61.60
46752;DHT22;32497;48.936;9.270;2022-10-16T13:39:14;23.70;55.50
46752;DHT22;32497;48.936;9.270;2022-10-16T13:44:19;23.70;60.50
46752;DHT22;32497;48.936;9.270;2022-10-16T13:49:20;23.30;62.30
46752;DHT22;32497;48.936;9.270;2022-10-16T13:54:22;24.60;61.80
46752;DHT22;32497;48.936;9.270;2022-10-16T13:59:26;24.80;58.10
46752;DHT22;32497;48.936;9.270;2022-10-16T14:04:31;24.20;59.40
46752;DHT22;32497;48.936;9.270;2022-10-16T14:09:33;25.20;60.50
46752;DHT22;32497;48.936;9.270;2022-10-16T14:14:41;26.10;56.70
46752;DHT22;32497;48.936;9.270;2022-10-16T14:19:46;25.70;54.90
46752;DHT22;32497;48.936;9.270;2022-10-16T14:24:48;24.40;61.90
46752;DHT22;32497;48.936;9.270;2022-10-16T14:29:50;23.70;62.70
46752;DHT22;32497;48.936;9.270;2022-10-16T14:34:53;23.20;62.80
46752;DHT22;32497;48.936;9.270;2022-10-16T14:39:55;22.40;63.30
46752;DHT22;32497;48.936;9.270;2022-10-16T14:44:58;22.20;68.10
46752;DHT22;32497;48.936;9.270;2022-10-16T14:49:59;22.20;69.30
46752;DHT22;32497;48.936;9.270;2022-10-16T14:55:00;22.20;68.60
46752;DHT22;32497;48.936;9.270;2022-10-16T15:00:03;22.10;69.60
46752;DHT22;32497;48.936;9.270;2022-10-16T15:05:12;22.20;69.80
46752;DHT22;32497;48.936;9.270;2022-10-16T15:10:15;22.50;68.90
46752;DHT22;32497;48.936;9.270;2022-10-16T15:15:36;22.50;69.80
46752;DHT22;32497;48.936;9.270;2022-10-16T15:20:38;22.70;70.50
46752;DHT22;32497;48.936;9.270;2022-10-16T15:25:42;22.70;69.20
46752;DHT22;32497;48.936;9.270;2022-10-16T15:30:45;22.70;69.30
46752;DHT22;32497;48.936;9.270;2022-10-16T15:35:47;22.40;69.20
46752;DHT22;32497;48.936;9.270;2022-10-16T15:40:49;22.00;69.40
46752;DHT22;32497;48.936;9.270;2022-10-16T15:45:59;21.70;70.00
46752;DHT22;32497;48.936;9.270;2022-10-16T15:51:05;21.50;71.00
46752;DHT22;32497;48.936;9.270;2022-10-16T15:56:08;21.40;71.60
46752;DHT22;32497;48.936;9.270;2022-10-16T16:01:10;21.30;69.80
46752;DHT22;32497;48.936;9.270;2022-10-16T16:06:13;21.50;70.70
46752;DHT22;32497;48.936;9.270;2022-10-16T16:11:15;21.50;71.50
46752;DHT22;32497;48.936;9.270;2022-10-16T16:16:18;21.20;73.40
46752;DHT22;32497;48.936;9.270;2022-10-16T16:21:19;21.00;73.70
46752;DHT22;32497;48.936;9.270;2022-10-16T16:26:23;20.60;75.00
46752;DHT22;32497;48.936;9.270;2022-10-16T16:31:27;20.30;74.60
46752;DHT22;32497;48.936;9.270;2022-10-16T16:36:29;20.10;76.10
46752;DHT22;32497;48.936;9.270;2022-10-16T16:41:30;19.80;77.50
46752;DHT22;32497;48.936;9.270;2022-10-16T16:46:32;19.60;77.20
46752;DHT22;32497;48.936;9.270;2022-10-16T16:51:34;19.50;77.30
46752;DHT22;32497;48.936;9.270;2022-10-16T16:56:35;19.50;78.10
46752;DHT22;32497;48.936;9.270;2022-10-16T17:01:37;19.30;78.50
46752;DHT22;32497;48.936;9.270;2022-10-16T17:06:38;19.20;78.10
46752;DHT22;32497;48.936;9.270;2022-10-16T17:11:40;19.10;79.20
46752;DHT22;32497;48.936;9.270;2022-10-16T17:16:42;18.90;80.20
46752;DHT22;32497;48.936;9.270;2022-10-16T17:21:43;18.70;81.40
46752;DHT22;32497;48.936;9.270;2022-10-16T17:26:44;18.60;82.50
46752;DHT22;32497;48.936;9.270;2022-10-16T17:31:47;18.40;82.90
46752;DHT22;32497;48.936;9.270;2022-10-16T17:36:48;18.30;82.80
46752;DHT22;32497;48.936;9.270;2022-10-16T17:41:49;18.20;82.70
46752;DHT22;32497;48.936;9.270;2022-10-16T17:46:52;18.20;82.00
46752;DHT22;32497;48.936;9.270;2022-10-16T17:51:53;18.20;81.90
46752;DHT22;32497;48.936;9.270;2022-10-16T17:56:55;18.20;81.20
46752;DHT22;32497;48.936;9.270;2022-10-16T18:01:57;18.10;81.00
46752;DHT22;32497;48.936;9.270;2022-10-16T18:06:58;18.00;81.20
46752;DHT22;32497;48.936;9.270;2022-10-16T18:11:59;17.90;81.40
46752;DHT22;32497;48.936;9.270;2022-10-16T18:17:02;17.80;81.70
46752;DHT22;32497;48.936;9.270;2022-10-16T18:22:03;17.80;81.80
46752;DHT22;32497;48.936;9.270;2022-10-16T18:27:04;17.70;82.20
46752;DHT22;32497;48.936;9.270;2022-10-16T18:32:06;17.70;82.50
46752;DHT22;32497;48.936;9.270;2022-10-16T18:37:08;17.70;82.60
46752;DHT22;32497;48.936;9.270;2022-10-16T18:42:09;17.60;82.70
46752;DHT22;32497;48.936;9.270;2022-10-16T18:47:11;17.50;82.80
46752;DHT22;32497;48.936;9.270;2022-10-16T18:52:13;17.50;83.00
46752;DHT22;32497;48.936;9.270;2022-10-16T18:57:14;17.40;83.30
46752;DHT22;32497;48.936;9.270;2022-10-16T19:02:16;17.30;83.40
46752;DHT22;32497;48.936;9.270;2022-10-16T19:07:17;17.20;83.80
46752;DHT22;32497;48.936;9.270;2022-10-16T19:12:18;17.10;83.90
46752;DHT22;32497;48.936;9.270;2022-10-16T19:17:21;17.10;84.10
46752;DHT22;32497;48.936;9.270;2022-10-16T19:22:22;17.00;84.20
46752;DHT22;32497;48.936;9.270;2022-10-16T19:27:23;17.00;84.30
46752;DHT22;32497;48.936;9.270;2022-10-16T19:32:26;16.90;84.20
46752;DHT22;32497;48.936;9.270;2022-10-16T19:37:27;16.90;84.10
46752;DHT22;32497;48.936;9.270;2022-10-16T19:42:28;16.80;84.10
46752;DHT22;32497;48.936;9.270;2022-10-16T19:47:31;16.70;84.20
46752;DHT22;32497;48.936;9.270;2022-10-16T19:52:32;16.70;84.40
46752;DHT22;32497;48.936;9.270;2022-10-16T19:57:34;16.70;84.20
46752;DHT22;32497;48.936;9.270;2022-10-16T20:02:37;16.70;83.50
46752;DHT22;32497;48.936;9.270;2022-10-16T20:07:38;16.80;82.80
46752;DHT22;32497;48.936;9.270;2022-10-16T20:12:39;16.90;82.60
46752;DHT22;32497;48.936;9.270;2022-10-16T20:17:41;16.90;82.30
46752;DHT22;32497;48.936;9.270;2022-10-16T20:22:43;16.80;82.50
46752;DHT22;32497;48.936;9.270;2022-10-16T20:27:44;16.70;82.60
46752;DHT22;32497;48.936;9.270;2022-10-16T20:32:46;16.70;82.60
46752;DHT22;32497;48.936;9.270;2022-10-16T20:37:47;16.70;82.60
46752;DHT22;32497;48.936;9.270;2022-10-16T20:42:50;16.60;82.60
46752;DHT22;32497;48.936;9.270;2022-10-16T20:47:52;16.50;82.70
46752;DHT22;32497;48.936;9.270;2022-10-16T20:52:53;16.50;82.60
46752;DHT22;32497;48.936;9.270;2022-10-16T20:57:54;16.40;82.90
46752;DHT22;32497;48.936;9.270;2022-10-16T21:02:57;16.40;83.00
46752;DHT22;32497;48.936;9.270;2022-10-16T21:07:58;16.30;83.10
46752;DHT22;32497;48.936;9.270;2022-10-16T21:12:59;16.20;83.80
46752;DHT22;32497;48.936;9.270;2022-10-16T21:18:01;16.00;84.00
46752;DHT22;32497;48.936;9.270;2022-10-16T21:23:02;15.70;84.80
46752;DHT22;32497;48.936;9.270;2022-10-16T21:28:03;15.60;85.50
46752;DHT22;32497;48.936;9.270;2022-10-16T21:33:06;15.50;86.40
46752;DHT22;32497;48.936;9.270;2022-10-16T21:38:07;15.40;86.80
46752;DHT22;32497;48.936;9.270;2022-10-16T21:43:08;15.30;87.40
46752;DHT22;32497;48.936;9.270;2022-10-16T21:48:10;15.20;87.60
46752;DHT22;32497;48.936;9.270;2022-10-16T21:53:11;15.20;87.90
46752;DHT22;32497;48.936;9.270;2022-10-16T21:58:12;15.20;87.80
46752;DHT22;32497;48.936;9.270;2022-10-16T22:03:15;15.10;87.80
46752;DHT22;32497;48.936;9.270;2022-10-16T22:08:16;14.90;87.60
46752;DHT22;32497;48.936;9.270;2022-10-16T22:13:17;14.90;87.80
46752;DHT22;32497;48.936;9.270;2022-10-16T22:18:19;15.10;87.20
46752;DHT22;32497;48.936;9.270;2022-10-16T22:23:21;15.10;86.80
46752;DHT22;32497;48.936;9.270;2022-10-16T22:28:22;15.20;86.40
46752;DHT22;32497;48.936;9.270;2022-10-16T22:33:24;15.10;86.40
46752;DHT22;32497;48.936;9.270;2022-10-16T22:38:27;15.10;86.10
46752;DHT22;32497;48.936;9.270;2022-10-16T22:43:29;15.10;86.10
46752;DHT22;32497;48.936;9.270;2022-10-16T22:48:31;15.00;86.20
46752;DHT22;32497;48.936;9.270;2022-10-16T22:53:33;15.00;86.60
46752;DHT22;32497;48.936;9.270;2022-10-16T22:58:34;14.90;86.60
46752;DHT22;32497;48.936;9.270;2022-10-16T23:03:36;14.90;86.20
46752;DHT22;32497;48.936;9.270;2022-10-16T23:08:37;15.10;85.60
46752;DHT22;32497;48.936;9.270;2022-10-16T23:13:39;15.10;85.20
46752;DHT22;32497;48.936;9.270;2022-10-16T23:18:42;15.20;84.90
46752;DHT22;32497;48.936;9.270;2022-10-16T23:23:44;15.20;85.10
46752;DHT22;32497;48.936;9.270;2022-10-16T23:28:45;14.90;85.90
46752;DHT22;32497;48.936;9.270;2022-10-16T23:33:47;14.70;86.40
46752;DHT22;32497;48.936;9.270;2022-10-16T23:38:49;14.60;86.60
46752;DHT22;32497;48.936;9.270;2022-10-16T23:43:50;14.60;86.40
46752;DHT22;32497;48.936;9.270;2022-10-16T23:48:52;14.50;86.80
46752;DHT22;32497;48.936;9.270;2022-10-16T23:53:53;14.50;86.90
46752;DHT22;32497;48.936;9.270;2022-10-16T23:58:54;14.40;87.20
